CheckWX is a tool to help pilots better visualize weather data.  It is not intended as a substitute for an official pre-flight weather briefing.

10:06:44 UTC

LCLK TAF
Larnaca International Airport
Larnarca, Cyprus
TAF LCLK 260530Z 2606/2706 18005KT CAVOK BECMG 2609/2611 20016KT BECMG 2616/2619 30007KT PROB30 TEMPO 2623/2705 1500 VCFG SCT003 BKN008

Jun-26@
06:00 UTC

Jun-26 @ 06:00 UTC

Jun-26@
09:00 UTC

Jun-26 @ 09:00 UTC

TAF LCLK 260530Z 2606/2706 18005KT CAVOK

Expired

Wind
  • 180° at 5 KTS
Conditions
No significant weather
Cloud Levels
  • No significant clouds

Jun-26@
09:00 UTC

Jun-26 @ 09:00 UTC

Jun-26@
16:00 UTC

Jun-26 @ 16:00 UTC

BECMG 2609/2611 20016KT

Becoming

Becoming Conditions expected by Wed, Jun 26, 2019 @ 11:00 UTC

Wind
  • 200° at 16 KTS
Conditions
No significant weather
Cloud Levels
  • No significant clouds

Jun-26@
16:00 UTC

Jun-26 @ 16:00 UTC

Jun-27@
06:00 UTC

Jun-27 @ 06:00 UTC

BECMG 2616/2619 30007KT

Becoming

Becoming Conditions expected by Wed, Jun 26, 2019 @ 19:00 UTC

Wind
  • 300° at 7 KTS
Conditions
No significant weather
Cloud Levels
  • No significant clouds

Jun-26@
23:00 UTC

Jun-26 @ 23:00 UTC

Jun-27@
05:00 UTC

Jun-27 @ 05:00 UTC

PROB30 TEMPO 2623/2705 1500 VCFG SCT003 BKN008

Temporary - 30% Likelihood

Temporary - 30% Likelihood during this time.

Conditions
Area Fog
Cloud Levels
  • Scattered at 300' AGL
  • Broken at 800' AGL